Time,TemperatureF,DewpointF,PressureIn,WindDirection,WindDirectionDegrees,WindSpeedMPH,WindSpeedGustMPH,Humidity,HourlyPrecipIn,Conditions,Clouds,dailyrainin,SoftwareType,DateUTC
2013-01-10 00:05:00,31.3,27.0,30.41,SSE,155,0.0,0.0,83,0.00,,,0.00,weatherlink.com 1.10,2013-01-10 06:05:00,
2013-01-10 00:20:00,31.2,27.0,30.40,SSE,155,1.0,3.0,83,0.00,,,0.00,weatherlink.com 1.10,2013-01-10 06:20:00,
2013-01-10 00:35:00,31.0,26.0,30.40,SSE,155,0.0,0.0,83,0.00,,,0.00,weatherlink.com 1.10,2013-01-10 06:35:00,
2013-01-10 00:50:00,30.8,26.0,30.40,SSE,155,0.0,0.0,83,0.00,,,0.00,weatherlink.com 1.10,2013-01-10 06:50:00,
2013-01-10 01:05:00,30.6,26.0,30.40,SSE,155,0.0,0.0,82,0.00,,,0.00,weatherlink.com 1.10,2013-01-10 07:05:00,
2013-01-10 01:20:00,30.3,26.0,30.39,SSE,155,0.0,0.0,83,0.00,,,0.00,weatherlink.com 1.10,2013-01-10 07:20:00,
2013-01-10 01:35:00,30.1,25.0,30.39,SSE,155,0.0,0.0,82,0.00,,,0.00,weatherlink.com 1.10,2013-01-10 07:35:00,
2013-01-10 01:50:00,29.9,25.0,30.38,SSE,155,0.0,0.0,82,0.00,,,0.00,weatherlink.com 1.10,2013-01-10 07:50:00,
2013-01-10 02:05:00,29.8,25.0,30.39,SSE,155,0.0,2.0,82,0.00,,,0.00,weatherlink.com 1.10,2013-01-10 08:05:00,
2013-01-10 02:20:00,29.9,25.0,30.39,SSE,155,3.0,6.0,82,0.00,,,0.00,weatherlink.com 1.10,2013-01-10 08:20:00,
2013-01-10 02:35:00,30.2,25.0,30.39,SSE,155,0.0,2.0,81,0.00,,,0.00,weatherlink.com 1.10,2013-01-10 08:35:00,
2013-01-10 02:50:00,30.1,25.0,30.39,SSE,155,0.0,0.0,80,0.00,,,0.00,weatherlink.com 1.10,2013-01-10 08:50:00,
2013-01-10 03:05:00,30.1,25.0,30.38,SSE,155,0.0,0.0,80,0.00,,,0.00,weatherlink.com 1.10,2013-01-10 09:05:00,
2013-01-10 03:20:00,29.9,24.0,30.38,SSE,155,0.0,0.0,80,0.00,,,0.00,weatherlink.com 1.10,2013-01-10 09:20:00,
2013-01-10 03:35:00,29.7,24.0,30.37,SSE,155,1.0,5.0,80,0.00,,,0.00,weatherlink.com 1.10,2013-01-10 09:35:00,
2013-01-10 03:50:00,29.8,24.0,30.36,SSE,155,3.0,5.0,80,0.00,,,0.00,weatherlink.com 1.10,2013-01-10 09:50:00,
2013-01-10 04:06:00,29.9,24.0,30.35,SSE,155,0.0,5.0,80,0.00,,,0.00,weatherlink.com 1.10,2013-01-10 10:06:00,
2013-01-10 04:21:00,30.0,25.0,30.34,SSE,155,0.0,3.0,81,0.00,,,0.00,weatherlink.com 1.10,2013-01-10 10:21:00,
2013-01-10 04:36:00,30.1,25.0,30.34,SSE,155,0.0,3.0,81,0.00,,,0.00,weatherlink.com 1.10,2013-01-10 10:36:00,
2013-01-10 04:51:00,30.2,25.0,30.32,SSE,154,1.0,4.0,80,0.00,,,0.00,weatherlink.com 1.10,2013-01-10 10:51:00,
2013-01-10 05:06:00,30.3,25.0,30.32,SSE,152,4.0,6.0,81,0.00,,,0.00,weatherlink.com 1.10,2013-01-10 11:06:00,
2013-01-10 05:21:00,30.6,25.0,30.31,SSE,150,3.0,5.0,81,0.00,,,0.00,weatherlink.com 1.10,2013-01-10 11:21:00,
2013-01-10 05:36:00,30.6,26.0,30.31,SSE,149,1.0,5.0,82,0.00,,,0.00,weatherlink.com 1.10,2013-01-10 11:36:00,
2013-01-10 05:51:00,30.7,26.0,30.30,SSE,149,0.0,0.0,82,0.00,,,0.00,weatherlink.com 1.10,2013-01-10 11:51:00,
2013-01-10 06:06:00,30.8,26.0,30.30,SSE,148,1.0,5.0,83,0.00,,,0.00,weatherlink.com 1.10,2013-01-10 12:06:00,
2013-01-10 06:21:00,31.0,26.0,30.30,SE,144,3.0,6.0,82,0.00,,,0.00,weatherlink.com 1.10,2013-01-10 12:21:00,
2013-01-10 06:36:00,31.1,27.0,30.30,SE,134,4.0,10.0,83,0.00,,,0.00,weatherlink.com 1.10,2013-01-10 12:36:00,
2013-01-10 06:51:00,31.5,27.0,30.29,SE,130,6.0,10.0,82,0.00,,,0.00,weatherlink.com 1.10,2013-01-10 12:51:00,
2013-01-10 07:06:00,31.8,27.0,30.28,SE,124,4.0,8.0,82,0.00,,,0.00,weatherlink.com 1.10,2013-01-10 13:06:00,
2013-01-10 07:21:00,32.1,27.0,30.27,ESE,117,4.0,8.0,81,0.00,,,0.00,weatherlink.com 1.10,2013-01-10 13:21:00,
2013-01-10 07:36:00,32.2,27.0,30.27,ESE,113,8.0,12.0,81,0.00,,,0.00,weatherlink.com 1.10,2013-01-10 13:36:00,
2013-01-10 07:50:00,32.3,27.0,30.26,ESE,109,4.0,11.0,80,0.00,,,0.00,weatherlink.com 1.10,2013-01-10 13:50:00,
2013-01-10 08:06:00,32.7,27.0,30.25,ESE,111,5.0,10.0,79,0.00,,,0.00,weatherlink.com 1.10,2013-01-10 14:06:00,
2013-01-10 08:21:00,32.7,27.0,30.25,ESE,109,4.0,9.0,79,0.00,,,0.00,weatherlink.com 1.10,2013-01-10 14:21:00,
2013-01-10 08:36:00,33.5,27.0,30.24,ESE,108,7.0,8.0,78,0.00,,,0.00,weatherlink.com 1.10,2013-01-10 14:36:00,
2013-01-10 08:51:00,34.2,27.0,30.24,ESE,107,5.0,9.0,76,0.00,,,0.00,weatherlink.com 1.10,2013-01-10 14:51:00,
2013-01-10 09:06:00,34.4,28.0,30.23,ESE,103,3.0,10.0,76,0.00,,,0.00,weatherlink.com 1.10,2013-01-10 15:06:00,
2013-01-10 09:21:00,34.2,28.0,30.22,ESE,103,4.0,8.0,78,0.00,,,0.00,weatherlink.com 1.10,2013-01-10 15:21:00,
2013-01-10 09:36:00,34.6,28.0,30.21,ESE,104,4.0,9.0,78,0.00,,,0.00,weatherlink.com 1.10,2013-01-10 15:36:00,
2013-01-10 09:51:00,35.1,29.0,30.20,East,101,0.0,9.0,77,0.00,,,0.00,weatherlink.com 1.10,2013-01-10 15:51:00,
2013-01-10 10:07:00,35.3,29.0,30.18,East,98,3.0,7.0,77,0.00,,,0.00,weatherlink.com 1.10,2013-01-10 16:07:00,
2013-01-10 10:22:00,36.0,29.0,30.17,East,92,5.0,9.0,75,0.00,,,0.00,weatherlink.com 1.10,2013-01-10 16:22:00,
2013-01-10 10:37:00,36.3,29.0,30.16,East,88,5.0,9.0,74,0.00,,,0.00,weatherlink.com 1.10,2013-01-10 16:37:00,
2013-01-10 10:52:00,36.4,30.0,30.14,East,92,9.0,11.0,76,0.00,,,0.00,weatherlink.com 1.10,2013-01-10 16:52:00,
2013-01-10 11:07:00,36.9,29.0,30.12,East,92,7.0,13.0,74,0.00,,,0.00,weatherlink.com 1.10,2013-01-10 17:07:00,
2013-01-10 11:22:00,37.3,30.0,30.11,East,101,3.0,11.0,74,0.00,,,0.00,weatherlink.com 1.10,2013-01-10 17:22:00,
2013-01-10 11:37:00,37.8,30.0,30.09,East,87,5.0,9.0,73,0.00,,,0.00,weatherlink.com 1.10,2013-01-10 17:37:00,
2013-01-10 11:52:00,38.4,29.0,30.06,East,98,5.0,13.0,70,0.00,,,0.00,weatherlink.com 1.10,2013-01-10 17:52:00,
2013-01-10 12:07:00,38.9,29.0,30.03,ENE,74,9.0,15.0,68,0.00,,,0.00,weatherlink.com 1.10,2013-01-10 18:07:00,
2013-01-10 12:22:00,39.0,29.0,30.01,East,91,14.0,14.0,67,0.00,,,0.00,weatherlink.com 1.10,2013-01-10 18:22:00,
2013-01-10 12:37:00,39.2,29.0,30.01,East,94,3.0,10.0,68,0.00,,,0.00,weatherlink.com 1.10,2013-01-10 18:37:00,
2013-01-10 12:52:00,39.1,29.0,30.01,ESE,110,2.0,13.0,68,0.00,,,0.00,weatherlink.com 1.10,2013-01-10 18:52:00,
2013-01-10 13:07:00,38.9,29.0,29.99,ESE,106,5.0,11.0,69,0.00,,,0.00,weatherlink.com 1.10,2013-01-10 19:07:00,
2013-01-10 13:22:00,39.2,31.0,29.98,ESE,109,5.0,15.0,71,0.00,,,0.00,weatherlink.com 1.10,2013-01-10 19:22:00,
2013-01-10 13:37:00,38.2,33.0,29.98,ESE,122,5.0,13.0,82,0.00,,,0.00,weatherlink.com 1.10,2013-01-10 19:37:00,
2013-01-10 13:52:00,37.3,34.0,29.97,SE,126,7.0,12.0,88,0.00,,,0.00,weatherlink.com 1.10,2013-01-10 19:52:00,
2013-01-10 14:07:00,37.2,35.0,29.97,ESE,117,3.0,10.0,90,0.00,,,0.00,weatherlink.com 1.10,2013-01-10 20:07:00,
2013-01-10 14:22:00,37.0,35.0,29.96,ESE,111,7.0,8.0,91,0.00,,,0.00,weatherlink.com 1.10,2013-01-10 20:22:00,
2013-01-10 14:38:00,36.8,35.0,29.94,ESE,109,5.0,11.0,92,0.00,,,0.00,weatherlink.com 1.10,2013-01-10 20:38:00,
2013-01-10 14:52:00,36.8,35.0,29.95,ESE,114,4.0,12.0,93,0.00,,,0.00,weatherlink.com 1.10,2013-01-10 20:52:00,
2013-01-10 15:07:00,36.8,35.0,29.94,ESE,115,8.0,10.0,93,0.01,,,0.01,weatherlink.com 1.10,2013-01-10 21:07:00,
2013-01-10 15:22:00,36.8,35.0,29.94,ESE,116,2.0,10.0,94,0.02,,,0.02,weatherlink.com 1.10,2013-01-10 21:22:00,
2013-01-10 15:37:00,36.6,35.0,29.94,ESE,115,4.0,12.0,94,0.03,,,0.03,weatherlink.com 1.10,2013-01-10 21:37:00,
2013-01-10 15:52:00,36.6,35.0,29.94,ESE,115,5.0,10.0,94,0.03,,,0.03,weatherlink.com 1.10,2013-01-10 21:52:00,
2013-01-10 16:07:00,36.3,35.0,29.93,ESE,115,4.0,9.0,94,0.02,,,0.03,weatherlink.com 1.10,2013-01-10 22:07:00,
2013-01-10 16:22:00,36.0,35.0,29.93,ESE,116,4.0,8.0,94,0.01,,,0.03,weatherlink.com 1.10,2013-01-10 22:22:00,
2013-01-10 16:37:00,36.1,35.0,29.92,ESE,115,3.0,7.0,95,0.00,,,0.03,weatherlink.com 1.10,2013-01-10 22:37:00,
2013-01-10 16:52:00,35.9,35.0,29.91,ESE,114,5.0,10.0,95,0.00,,,0.03,weatherlink.com 1.10,2013-01-10 22:52:00,
2013-01-10 17:08:00,35.9,35.0,29.91,ESE,111,5.0,10.0,95,0.00,,,0.03,weatherlink.com 1.10,2013-01-10 23:08:00,
2013-01-10 17:22:00,35.7,34.0,29.91,ESE,117,5.0,11.0,95,0.00,,,0.03,weatherlink.com 1.10,2013-01-10 23:22:00,
2013-01-10 17:38:00,35.6,34.0,29.91,ESE,116,7.0,8.0,95,0.00,,,0.03,weatherlink.com 1.10,2013-01-10 23:38:00,
2013-01-10 17:53:00,35.4,34.0,29.91,ESE,117,4.0,8.0,95,0.00,,,0.03,weatherlink.com 1.10,2013-01-10 23:53:00,
2013-01-10 18:08:00,35.3,34.0,29.90,ESE,117,4.0,8.0,95,0.00,,,0.03,weatherlink.com 1.10,2013-01-11 00:08:00,
2013-01-10 18:23:00,35.2,34.0,29.89,ESE,112,7.0,9.0,95,0.00,,,0.03,weatherlink.com 1.10,2013-01-11 00:23:00,
2013-01-10 18:38:00,35.2,34.0,29.88,ESE,114,3.0,10.0,95,0.01,,,0.04,weatherlink.com 1.10,2013-01-11 00:38:00,
2013-01-10 18:53:00,35.0,34.0,29.87,ESE,117,7.0,12.0,95,0.01,,,0.04,weatherlink.com 1.10,2013-01-11 00:53:00,
2013-01-10 19:08:00,35.1,34.0,29.86,ESE,115,3.0,12.0,95,0.01,,,0.04,weatherlink.com 1.10,2013-01-11 01:08:00,
2013-01-10 19:23:00,35.0,34.0,29.85,ESE,123,8.0,12.0,95,0.01,,,0.04,weatherlink.com 1.10,2013-01-11 01:23:00,
2013-01-10 19:38:00,35.1,34.0,29.82,ESE,119,3.0,10.0,95,0.00,,,0.04,weatherlink.com 1.10,2013-01-11 01:38:00,
2013-01-10 19:53:00,35.2,34.0,29.81,ESE,119,5.0,10.0,95,0.00,,,0.04,weatherlink.com 1.10,2013-01-11 01:53:00,
2013-01-10 20:08:00,35.2,34.0,29.81,ESE,120,0.0,10.0,95,0.00,,,0.04,weatherlink.com 1.10,2013-01-11 02:08:00,
2013-01-10 20:23:00,35.1,34.0,29.80,ESE,120,0.0,4.0,95,0.00,,,0.04,weatherlink.com 1.10,2013-01-11 02:23:00,
2013-01-10 20:38:00,35.1,34.0,29.80,ESE,120,0.0,0.0,96,0.00,,,0.04,weatherlink.com 1.10,2013-01-11 02:38:00,
2013-01-10 20:53:00,35.0,34.0,29.81,ESE,120,3.0,7.0,96,0.00,,,0.04,weatherlink.com 1.10,2013-01-11 02:53:00,
2013-01-10 21:08:00,34.9,34.0,29.80,ESE,121,0.0,5.0,96,0.00,,,0.04,weatherlink.com 1.10,2013-01-11 03:08:00,
2013-01-10 21:23:00,35.1,34.0,29.79,ESE,119,3.0,9.0,96,0.00,,,0.04,weatherlink.com 1.10,2013-01-11 03:23:00,
2013-01-10 21:38:00,35.2,34.0,29.78,ESE,116,7.0,10.0,96,0.00,,,0.04,weatherlink.com 1.10,2013-01-11 03:38:00,
2013-01-10 21:53:00,35.3,34.0,29.78,ESE,115,4.0,8.0,96,0.00,,,0.04,weatherlink.com 1.10,2013-01-11 03:53:00,
2013-01-10 22:08:00,35.3,34.0,29.77,ESE,115,0.0,4.0,96,0.00,,,0.04,weatherlink.com 1.10,2013-01-11 04:08:00,
2013-01-10 22:23:00,35.1,34.0,29.76,ESE,115,0.0,0.0,96,0.00,,,0.04,weatherlink.com 1.10,2013-01-11 04:23:00,
2013-01-10 22:38:00,35.2,34.0,29.76,ESE,115,0.0,0.0,96,0.00,,,0.04,weatherlink.com 1.10,2013-01-11 04:38:00,
2013-01-10 22:53:00,35.2,34.0,29.76,ESE,115,0.0,0.0,96,0.00,,,0.04,weatherlink.com 1.10,2013-01-11 04:53:00,
2013-01-10 23:08:00,35.1,34.0,29.75,ESE,115,0.0,0.0,96,0.01,,,0.05,weatherlink.com 1.10,2013-01-11 05:08:00,
2013-01-10 23:23:00,35.0,34.0,29.75,ESE,115,0.0,0.0,96,0.01,,,0.05,weatherlink.com 1.10,2013-01-11 05:23:00,
2013-01-10 23:38:00,34.9,34.0,29.75,ESE,115,0.0,0.0,96,0.01,,,0.05,weatherlink.com 1.10,2013-01-11 05:38:00,
2013-01-10 23:53:00,34.9,34.0,29.75,ESE,115,0.0,0.0,96,0.02,,,0.06,weatherlink.com 1.10,2013-01-11 05:53:00,